Andrews, Texas
Current Conditions -  °F | °C
As of 2:15 AM on Monday 26 Jan 2015 (Local Time) from KE11 Reporting Station
Clear Clear  
Wind Chill: 34°   Ceiling: Unl
Heat Index: 38°   Visibility: 10mi
Dew Point: 28°   Wind: 6mph
Humidity: 67%   Direction: 300°WNW
Pressure: 30.27"   Gusts: NA
Location:  32.32°N, 102.54°W
Report Text: KE11 260815Z AUTO 30005KT 10SM CLR 04/M02 A3027 RMK AO2 T00351022
Loading
Personal Weather Stations






























Interactive Weather Map New forecast layout! Learn more

10-Day Weather Forecast

Advertisements
Track Severe Weather on mobile